createdAt,value
2018-12-26T00:02:36.901Z,-1.20
2018-12-26T00:05:17.642Z,-1.20
2018-12-26T00:07:58.659Z,-1.20
2018-12-26T00:10:39.435Z,-1.30
2018-12-26T00:13:20.462Z,-1.20
2018-12-26T00:16:01.237Z,-1.30
2018-12-26T00:18:41.751Z,-1.40
2018-12-26T00:21:23.205Z,-1.30
2018-12-26T00:24:04.178Z,-1.40
2018-12-26T00:26:45.029Z,-1.40
2018-12-26T00:29:26.140Z,-1.60
2018-12-26T00:32:06.892Z,-1.60
2018-12-26T00:34:47.853Z,-1.60
2018-12-26T00:37:28.748Z,-1.60
2018-12-26T00:40:09.585Z,-1.70
2018-12-26T00:42:50.604Z,-1.80
2018-12-26T00:45:31.612Z,-1.70
2018-12-26T00:48:12.575Z,-1.60
2018-12-26T00:50:53.429Z,-1.60
2018-12-26T00:53:35.944Z,-1.50
2018-12-26T00:56:16.580Z,-1.50
2018-12-26T00:58:57.726Z,-1.50
2018-12-26T01:01:39.012Z,-1.50
2018-12-26T01:04:20.021Z,-1.60
2018-12-26T01:07:01.172Z,-1.60
2018-12-26T01:09:42.248Z,-1.50
2018-12-26T01:12:23.567Z,-1.40
2018-12-26T01:15:04.469Z,-1.40
2018-12-26T01:17:45.475Z,-1.40
2018-12-26T01:20:26.528Z,-1.40
2018-12-26T01:23:07.073Z,-1.40
2018-12-26T01:25:47.797Z,-1.50
2018-12-26T01:28:28.748Z,-1.50
2018-12-26T01:31:09.572Z,-1.40
2018-12-26T01:33:50.385Z,-1.40
2018-12-26T01:36:31.303Z,-1.40
2018-12-26T01:39:11.925Z,-1.40
2018-12-26T01:41:52.811Z,-1.40
2018-12-26T01:44:33.774Z,-1.60
2018-12-26T01:47:14.540Z,-1.50
2018-12-26T01:49:55.373Z,-1.40
2018-12-26T01:52:36.597Z,-1.30
2018-12-26T01:55:18.017Z,-1.30
2018-12-26T01:57:58.959Z,-1.30
2018-12-26T02:00:39.808Z,-1.30
2018-12-26T02:03:20.324Z,-1.20
2018-12-26T02:06:01.361Z,-1.20
2018-12-26T02:08:42.416Z,-1.30
2018-12-26T02:11:23.572Z,-1.20
2018-12-26T02:14:04.513Z,-1.00
2018-12-26T02:16:45.199Z,-1.00
2018-12-26T02:19:25.931Z,-1.00
2018-12-26T02:22:06.728Z,-0.90
2018-12-26T02:24:47.465Z,-0.80
2018-12-26T02:27:28.318Z,-0.90
2018-12-26T02:30:09.235Z,-1.10
2018-12-26T02:32:50.176Z,-1.20
2018-12-26T02:35:30.993Z,-1.30
2018-12-26T02:38:12.016Z,-1.30
2018-12-26T02:40:52.376Z,-1.40
2018-12-26T02:43:33.202Z,-1.30
2018-12-26T02:46:14.111Z,-1.40
2018-12-26T02:48:55.572Z,-1.40
2018-12-26T02:51:36.440Z,-1.40
2018-12-26T02:54:17.096Z,-1.40
2018-12-26T02:56:58.001Z,-1.40
2018-12-26T02:59:38.964Z,-1.50
2018-12-26T03:02:20.006Z,-1.60
2018-12-26T03:05:01.221Z,-1.60
2018-12-26T03:07:42.262Z,-1.60
2018-12-26T03:10:23.388Z,-1.70
2018-12-26T03:13:04.592Z,-1.80
2018-12-26T03:15:45.692Z,-1.80
2018-12-26T03:18:26.594Z,-1.80
2018-12-26T03:21:07.501Z,-1.80
2018-12-26T03:23:48.285Z,-1.80
2018-12-26T03:26:29.393Z,-1.90
2018-12-26T03:29:10.465Z,-1.90
2018-12-26T03:31:51.688Z,-1.80
2018-12-26T03:34:32.252Z,-1.70
2018-12-26T03:37:12.805Z,-1.70
2018-12-26T03:39:53.225Z,-1.60
2018-12-26T03:42:34.045Z,-1.60
2018-12-26T03:45:14.817Z,-1.50
2018-12-26T03:47:55.895Z,-1.60
2018-12-26T03:50:36.720Z,-1.50
2018-12-26T03:53:19.012Z,-1.60
2018-12-26T03:55:59.471Z,-1.60
2018-12-26T03:58:40.341Z,-1.50
2018-12-26T04:01:21.019Z,-1.50
2018-12-26T04:04:02.095Z,-1.70
2018-12-26T04:06:42.584Z,-1.80
2018-12-26T04:09:23.280Z,-1.80
2018-12-26T04:12:03.843Z,-1.80
2018-12-26T04:14:44.745Z,-1.70
2018-12-26T04:17:26.102Z,-1.70
2018-12-26T04:20:06.989Z,-1.80
2018-12-26T04:22:47.807Z,-1.90
2018-12-26T04:25:28.449Z,-1.80
2018-12-26T04:28:09.063Z,-1.90
2018-12-26T04:30:49.868Z,-1.90
2018-12-26T04:33:30.960Z,-1.80
2018-12-26T04:36:11.925Z,-1.80
2018-12-26T04:38:52.941Z,-1.80
2018-12-26T04:41:34.066Z,-1.80
2018-12-26T04:44:14.934Z,-1.70
2018-12-26T04:46:55.777Z,-1.60
2018-12-26T04:49:36.461Z,-1.60
2018-12-26T04:52:17.642Z,-1.60
2018-12-26T04:54:58.388Z,-1.60
2018-12-26T04:57:39.567Z,-1.50
2018-12-26T05:00:20.276Z,-1.60
2018-12-26T05:03:00.956Z,-1.50
2018-12-26T05:05:42.010Z,-1.40
2018-12-26T05:08:22.973Z,-1.40
2018-12-26T05:11:03.614Z,-1.40
2018-12-26T05:13:44.538Z,-1.40
2018-12-26T05:16:25.564Z,-1.30
2018-12-26T05:19:06.417Z,-1.20
2018-12-26T05:21:47.252Z,-1.20
2018-12-26T05:24:28.553Z,-1.10
2018-12-26T05:27:09.471Z,-1.10
2018-12-26T05:29:50.485Z,-1.10
2018-12-26T05:32:31.400Z,-1.10
2018-12-26T05:35:12.221Z,-1.00
2018-12-26T05:37:53.272Z,-1.00
2018-12-26T05:40:34.065Z,-1.10
2018-12-26T05:43:15.211Z,-1.10
2018-12-26T05:45:56.284Z,-1.10
2018-12-26T05:48:36.916Z,-1.10
2018-12-26T05:51:17.680Z,-1.20
2018-12-26T05:53:58.593Z,-1.10
2018-12-26T05:56:39.146Z,-1.10
2018-12-26T05:59:20.153Z,-1.10
2018-12-26T06:02:00.674Z,-1.10
2018-12-26T06:04:41.402Z,-1.00
2018-12-26T06:07:22.500Z,-1.00
2018-12-26T06:10:03.358Z,-1.10
2018-12-26T06:12:43.736Z,-1.10
2018-12-26T06:15:24.372Z,-1.10
2018-12-26T06:18:05.328Z,-1.10
2018-12-26T06:20:46.253Z,-1.20
2018-12-26T06:23:27.034Z,-1.10
2018-12-26T06:26:08.153Z,-1.20
2018-12-26T06:28:48.924Z,-1.20
2018-12-26T06:31:29.690Z,-1.10
2018-12-26T06:34:10.648Z,-1.20
2018-12-26T06:36:51.352Z,-1.30
2018-12-26T06:39:32.382Z,-1.40
2018-12-26T06:42:13.158Z,-1.40
2018-12-26T06:44:53.868Z,-1.50
2018-12-26T06:47:34.857Z,-1.50
2018-12-26T06:50:16.132Z,-1.70
2018-12-26T06:52:56.875Z,-1.60
2018-12-26T06:55:37.756Z,-1.80
2018-12-26T06:58:18.632Z,-1.80
2018-12-26T07:00:59.700Z,-1.80
2018-12-26T07:03:40.605Z,-1.80
2018-12-26T07:06:21.210Z,-1.90
2018-12-26T07:09:02.316Z,-1.90
2018-12-26T07:11:43.197Z,-1.90
2018-12-26T07:14:24.229Z,-1.90
2018-12-26T07:17:05.188Z,-1.80
2018-12-26T07:19:46.179Z,-1.70
2018-12-26T07:22:28.791Z,-1.80
2018-12-26T07:25:10.194Z,-1.80
2018-12-26T07:27:50.731Z,-1.80
2018-12-26T07:30:31.588Z,-1.80
2018-12-26T07:33:12.759Z,-1.70
2018-12-26T07:35:54.109Z,-1.70
2018-12-26T07:38:35.285Z,-1.80
2018-12-26T07:41:16.102Z,-1.80
2018-12-26T07:43:57.324Z,-1.80
2018-12-26T07:46:38.594Z,-1.70
2018-12-26T07:49:19.162Z,-1.90
2018-12-26T07:52:00.302Z,-2.00
2018-12-26T07:54:41.265Z,-2.00
2018-12-26T07:57:22.245Z,-2.00
2018-12-26T08:00:03.079Z,-1.90
2018-12-26T08:02:43.915Z,-1.90
2018-12-26T08:05:24.608Z,-1.90
2018-12-26T08:08:05.717Z,-1.80
2018-12-26T08:10:47.073Z,-1.80
2018-12-26T08:13:28.411Z,-1.70
2018-12-26T08:16:09.896Z,-1.60
2018-12-26T08:18:51.060Z,-1.60
2018-12-26T08:21:31.999Z,-1.50
2018-12-26T08:24:12.605Z,-1.50
2018-12-26T08:26:53.694Z,-1.50
2018-12-26T08:29:34.520Z,-1.50
2018-12-26T08:32:15.592Z,-1.40
2018-12-26T08:34:56.434Z,-1.40
2018-12-26T08:37:37.256Z,-1.50
2018-12-26T08:40:17.753Z,-1.50
2018-12-26T08:42:58.516Z,-1.40
2018-12-26T08:45:39.505Z,-1.40
2018-12-26T08:48:20.409Z,-1.30
2018-12-26T08:51:01.145Z,-1.20
2018-12-26T08:53:41.868Z,-1.20
2018-12-26T08:56:22.852Z,-1.20
2018-12-26T08:59:03.484Z,-1.10
2018-12-26T09:01:44.024Z,-1.20
2018-12-26T09:04:25.061Z,-1.10
2018-12-26T09:07:05.955Z,-1.00
2018-12-26T09:09:46.760Z,-0.90
2018-12-26T09:12:28.080Z,-0.80
2018-12-26T09:15:09.422Z,-0.80
2018-12-26T09:17:50.347Z,-0.70
2018-12-26T09:20:31.413Z,-0.70
2018-12-26T09:23:12.384Z,-0.80
2018-12-26T09:25:53.105Z,-0.80
2018-12-26T09:28:34.108Z,-0.70
2018-12-26T09:31:14.620Z,-0.60
2018-12-26T09:33:55.716Z,-0.60
2018-12-26T09:36:36.391Z,-0.50
2018-12-26T09:39:17.438Z,-0.50
2018-12-26T09:41:58.220Z,-0.40
2018-12-26T09:44:38.850Z,-0.40
2018-12-26T09:47:19.651Z,-0.40
2018-12-26T09:50:00.317Z,-0.20
2018-12-26T09:52:41.320Z,-0.30
2018-12-26T09:55:22.277Z,-0.30
2018-12-26T09:58:03.301Z,-0.20
2018-12-26T10:00:44.024Z,-0.20
2018-12-26T10:03:24.787Z,-0.20
2018-12-26T10:06:05.621Z,-0.10
2018-12-26T10:08:46.252Z,-0.10
2018-12-26T10:11:27.016Z,-0.10
2018-12-26T10:14:08.057Z,-0.10
2018-12-26T10:16:49.388Z,0.00
2018-12-26T10:19:30.507Z,0.00
2018-12-26T10:22:11.616Z,0.00
2018-12-26T10:24:52.765Z,0.10
2018-12-26T10:27:34.169Z,0.10
2018-12-26T10:30:14.812Z,0.10
2018-12-26T10:32:55.272Z,0.20
2018-12-26T10:35:35.683Z,0.20
2018-12-26T10:38:16.440Z,0.30
2018-12-26T10:40:57.031Z,0.30
2018-12-26T10:43:37.952Z,0.40
2018-12-26T10:46:18.675Z,0.50
2018-12-26T10:48:59.389Z,0.60
2018-12-26T10:51:39.913Z,0.60
2018-12-26T10:54:21.015Z,0.70
2018-12-26T10:57:01.972Z,0.60
2018-12-26T10:59:42.523Z,0.70
2018-12-26T11:02:23.143Z,0.70
2018-12-26T11:05:03.872Z,0.70
2018-12-26T11:07:44.441Z,0.80
2018-12-26T11:10:25.473Z,0.80
2018-12-26T11:13:06.606Z,0.70
2018-12-26T11:15:47.135Z,0.80
2018-12-26T11:18:27.916Z,0.60
2018-12-26T11:21:08.816Z,0.60
2018-12-26T11:23:50.084Z,0.60
2018-12-26T11:26:31.028Z,0.60
2018-12-26T11:29:18.569Z,0.60
2018-12-26T11:31:55.062Z,0.70
2018-12-26T11:34:35.597Z,0.70
2018-12-26T11:37:16.769Z,0.60
2018-12-26T11:39:57.653Z,0.70
2018-12-26T11:42:38.368Z,0.80
2018-12-26T11:45:19.136Z,0.70
2018-12-26T11:48:00.108Z,0.90
2018-12-26T11:50:41.013Z,0.90
2018-12-26T11:53:22.013Z,0.90
2018-12-26T11:56:03.097Z,0.80
2018-12-26T11:58:44.151Z,0.60
2018-12-26T12:01:24.708Z,0.60
2018-12-26T12:04:05.496Z,0.60
2018-12-26T12:06:46.268Z,0.70
2018-12-26T12:09:26.829Z,0.70
2018-12-26T12:12:07.465Z,0.60
2018-12-26T12:14:47.836Z,0.50
2018-12-26T12:17:28.604Z,0.40
2018-12-26T12:20:09.099Z,0.30
2018-12-26T12:22:51.159Z,0.30
2018-12-26T12:25:31.664Z,0.50
2018-12-26T12:28:12.473Z,0.40
2018-12-26T12:30:53.352Z,0.20
2018-12-26T12:33:33.904Z,0.20
2018-12-26T12:36:15.117Z,0.00
2018-12-26T12:38:56.148Z,-0.10
2018-12-26T12:41:36.784Z,0.00
2018-12-26T12:44:17.293Z,0.10
2018-12-26T12:46:58.212Z,0.20
2018-12-26T12:49:39.024Z,0.10
2018-12-26T12:52:19.883Z,0.00
2018-12-26T12:55:00.464Z,0.00
2018-12-26T12:57:41.250Z,0.20
2018-12-26T13:00:21.820Z,0.20
2018-12-26T13:03:02.980Z,0.20
2018-12-26T13:05:43.787Z,0.10
2018-12-26T13:08:24.657Z,0.10
2018-12-26T13:11:05.628Z,0.00
2018-12-26T13:13:45.925Z,0.00
2018-12-26T13:16:26.660Z,-0.10
2018-12-26T13:19:07.348Z,-0.10
2018-12-26T13:21:48.088Z,-0.10
2018-12-26T13:24:28.768Z,-0.10
2018-12-26T13:27:09.405Z,-0.10
2018-12-26T13:29:53.799Z,-0.20
2018-12-26T13:32:33.064Z,-0.20
2018-12-26T13:35:13.820Z,-0.10
2018-12-26T13:37:54.433Z,-0.10
2018-12-26T13:40:35.252Z,0.00
2018-12-26T13:43:16.036Z,0.00
2018-12-26T13:45:57.041Z,0.00
2018-12-26T13:48:38.200Z,0.10
2018-12-26T13:51:18.929Z,0.00
2018-12-26T13:53:59.670Z,-0.20
2018-12-26T13:56:40.760Z,-0.30
2018-12-26T13:59:21.512Z,-0.30
2018-12-26T14:02:02.397Z,-0.20
2018-12-26T14:04:43.284Z,-0.30
2018-12-26T14:07:23.705Z,-0.30
2018-12-26T14:10:04.689Z,-0.10
2018-12-26T14:12:45.848Z,-0.10
2018-12-26T14:15:26.583Z,-0.20
2018-12-26T14:18:07.700Z,-0.30
2018-12-26T14:20:48.376Z,-0.30
2018-12-26T14:23:28.914Z,-0.30
2018-12-26T14:26:09.723Z,-0.30
2018-12-26T14:28:50.606Z,-0.40
2018-12-26T14:31:31.944Z,-0.40
2018-12-26T14:34:12.536Z,-0.50
2018-12-26T14:36:53.468Z,-0.60
2018-12-26T14:39:34.105Z,-0.70
2018-12-26T14:42:15.081Z,-0.70
2018-12-26T14:44:56.080Z,-0.70
2018-12-26T14:47:36.812Z,-0.70
2018-12-26T14:50:17.632Z,-0.70
2018-12-26T14:52:59.851Z,-0.80
2018-12-26T14:55:41.065Z,-0.80
2018-12-26T14:58:21.945Z,-0.90
2018-12-26T15:01:02.668Z,-0.90
2018-12-26T15:03:43.661Z,-1.00
2018-12-26T15:06:24.836Z,-1.00
2018-12-26T15:09:05.556Z,-1.00
2018-12-26T15:11:46.499Z,-1.00
2018-12-26T15:14:27.387Z,-1.10
2018-12-26T15:17:08.382Z,-1.10
2018-12-26T15:19:49.357Z,-1.20
2018-12-26T15:22:32.128Z,-1.20
2018-12-26T15:25:13.593Z,-1.10
2018-12-26T15:27:54.568Z,-1.10
2018-12-26T15:30:35.388Z,-1.10
2018-12-26T15:33:16.082Z,-1.20
2018-12-26T15:35:57.005Z,-1.20
2018-12-26T15:38:37.885Z,-1.20
2018-12-26T15:41:18.744Z,-1.30
2018-12-26T15:43:59.968Z,-1.30
2018-12-26T15:46:40.895Z,-1.40
2018-12-26T15:49:21.897Z,-1.30
2018-12-26T15:52:03.048Z,-1.40
2018-12-26T15:54:44.063Z,-1.40
2018-12-26T15:57:25.153Z,-1.40
2018-12-26T16:00:06.172Z,-1.50
2018-12-26T16:02:47.293Z,-1.40
2018-12-26T16:05:28.179Z,-1.50
2018-12-26T16:08:08.968Z,-1.50
2018-12-26T16:10:49.968Z,-1.60
2018-12-26T16:13:30.753Z,-1.60
2018-12-26T16:16:11.632Z,-1.70
2018-12-26T16:18:52.237Z,-1.70
2018-12-26T16:21:33.148Z,-1.70
2018-12-26T16:24:14.316Z,-1.80
2018-12-26T16:26:55.429Z,-1.80
2018-12-26T16:29:36.392Z,-1.90
2018-12-26T16:32:17.653Z,-2.00
2018-12-26T16:34:59.100Z,-2.00
2018-12-26T16:37:39.944Z,-2.10
2018-12-26T16:40:20.814Z,-2.10
2018-12-26T16:43:02.148Z,-2.10
2018-12-26T16:45:43.901Z,-2.10
2018-12-26T16:48:24.929Z,-2.20
2018-12-26T16:51:05.847Z,-2.20
2018-12-26T16:53:46.898Z,-2.10
2018-12-26T16:56:27.932Z,-2.00
2018-12-26T16:59:09.248Z,-1.90
2018-12-26T17:01:50.132Z,-1.90
2018-12-26T17:04:31.116Z,-1.90
2018-12-26T17:07:12.351Z,-1.90
2018-12-26T17:09:53.450Z,-1.90
2018-12-26T17:12:34.756Z,-1.90
2018-12-26T17:15:15.833Z,-2.00
2018-12-26T17:17:56.757Z,-2.00
2018-12-26T17:20:37.873Z,-2.00
2018-12-26T17:23:18.644Z,-2.00
2018-12-26T17:25:59.409Z,-2.00
2018-12-26T17:28:40.319Z,-2.10
2018-12-26T17:31:21.065Z,-2.10
2018-12-26T17:34:01.863Z,-2.20
2018-12-26T17:36:42.945Z,-2.20
2018-12-26T17:39:24.110Z,-2.20
2018-12-26T17:42:05.160Z,-2.20
2018-12-26T17:44:45.829Z,-2.20
2018-12-26T17:47:26.338Z,-2.10
2018-12-26T17:50:07.492Z,-2.20
2018-12-26T17:52:48.823Z,-2.30
2018-12-26T17:55:29.854Z,-2.30
2018-12-26T17:58:10.930Z,-2.30
2018-12-26T18:00:52.285Z,-2.20
2018-12-26T18:03:33.395Z,-2.20
2018-12-26T18:06:14.487Z,-2.30
2018-12-26T18:08:55.805Z,-2.50
2018-12-26T18:11:36.904Z,-2.40
2018-12-26T18:14:17.809Z,-2.30
2018-12-26T18:16:58.841Z,-2.30
2018-12-26T18:19:39.747Z,-2.20
2018-12-26T18:22:21.086Z,-2.30
2018-12-26T18:25:01.769Z,-2.30
2018-12-26T18:27:42.756Z,-2.30
2018-12-26T18:30:23.781Z,-2.30
2018-12-26T18:33:04.557Z,-2.30
2018-12-26T18:35:45.423Z,-2.40
2018-12-26T18:38:26.401Z,-2.30
2018-12-26T18:41:07.262Z,-2.30
2018-12-26T18:43:48.328Z,-2.40
2018-12-26T18:46:29.425Z,-2.50
2018-12-26T18:49:10.200Z,-2.40
2018-12-26T18:51:50.881Z,-2.50
2018-12-26T18:54:31.884Z,-2.40
2018-12-26T18:57:12.605Z,-2.40
2018-12-26T18:59:53.807Z,-2.30
2018-12-26T19:02:35.004Z,-2.30
2018-12-26T19:05:16.576Z,-2.30
2018-12-26T19:07:57.922Z,-2.30
2018-12-26T19:10:39.306Z,-2.20
2018-12-26T19:13:20.478Z,-2.20
2018-12-26T19:16:01.654Z,-2.10
2018-12-26T19:18:42.681Z,-2.20
2018-12-26T19:21:23.735Z,-2.30
2018-12-26T19:24:04.408Z,-2.30
2018-12-26T19:26:45.458Z,-2.20
2018-12-26T19:29:26.406Z,-2.20
2018-12-26T19:32:07.445Z,-2.10
2018-12-26T19:34:48.380Z,-2.20
2018-12-26T19:37:29.239Z,-2.20
2018-12-26T19:40:10.412Z,-2.10
2018-12-26T19:42:51.396Z,-2.10
2018-12-26T19:45:32.464Z,-2.20
2018-12-26T19:48:13.474Z,-2.30
2018-12-26T19:50:54.713Z,-2.30
2018-12-26T19:53:35.609Z,-2.20
2018-12-26T19:56:16.590Z,-2.20
2018-12-26T19:58:57.973Z,-2.10
2018-12-26T20:01:39.179Z,-2.10
2018-12-26T20:04:20.233Z,-2.10
2018-12-26T20:07:01.351Z,-2.10
2018-12-26T20:09:42.087Z,-2.20
2018-12-26T20:12:23.204Z,-2.10
2018-12-26T20:15:04.448Z,-2.30
2018-12-26T20:17:45.308Z,-2.40
2018-12-26T20:20:25.981Z,-2.30
2018-12-26T20:23:07.061Z,-2.50
2018-12-26T20:25:48.222Z,-2.50
2018-12-26T20:28:29.337Z,-2.50
2018-12-26T20:31:10.524Z,-2.50
2018-12-26T20:33:51.724Z,-2.60
2018-12-26T20:36:32.840Z,-2.60
2018-12-26T20:39:14.073Z,-2.60
2018-12-26T20:41:54.944Z,-2.60
2018-12-26T20:44:35.788Z,-2.60
2018-12-26T20:47:16.856Z,-2.50
2018-12-26T20:49:57.948Z,-2.60
2018-12-26T20:52:38.657Z,-2.70
2018-12-26T20:55:19.797Z,-2.80
2018-12-26T20:58:01.030Z,-2.70
2018-12-26T21:00:42.232Z,-2.70
2018-12-26T21:03:23.464Z,-2.60
2018-12-26T21:06:04.536Z,-2.50
2018-12-26T21:08:45.742Z,-2.60
2018-12-26T21:11:26.623Z,-2.60
2018-12-26T21:14:07.712Z,-2.80
2018-12-26T21:16:55.051Z,-2.80
2018-12-26T21:19:31.845Z,-2.70
2018-12-26T21:22:12.772Z,-2.60
2018-12-26T21:24:53.837Z,-2.60
2018-12-26T21:27:34.962Z,-2.60
2018-12-26T21:30:16.041Z,-2.60
2018-12-26T21:32:57.064Z,-2.60
2018-12-26T21:35:38.142Z,-2.60
2018-12-26T21:38:18.923Z,-2.60
2018-12-26T21:40:59.918Z,-2.40
2018-12-26T21:43:40.764Z,-2.40
2018-12-26T21:46:21.545Z,-2.50
2018-12-26T21:49:02.520Z,-2.60
2018-12-26T21:51:43.370Z,-2.50
2018-12-26T21:54:23.917Z,-2.50
2018-12-26T21:57:04.828Z,-2.50
2018-12-26T21:59:45.544Z,-2.40
2018-12-26T22:02:26.421Z,-2.30
2018-12-26T22:05:07.516Z,-2.30
2018-12-26T22:07:48.421Z,-2.30
2018-12-26T22:10:29.420Z,-2.40
2018-12-26T22:13:10.408Z,-2.40
2018-12-26T22:15:51.556Z,-2.30
2018-12-26T22:18:32.420Z,-2.30
2018-12-26T22:21:13.636Z,-2.40
2018-12-26T22:23:54.821Z,-2.40
2018-12-26T22:26:42.994Z,-2.40
2018-12-26T22:29:18.660Z,-2.40
2018-12-26T22:31:59.524Z,-2.50
2018-12-26T22:34:40.380Z,-2.50
2018-12-26T22:37:21.058Z,-2.50
2018-12-26T22:40:02.151Z,-2.50
2018-12-26T22:42:42.972Z,-2.60
2018-12-26T22:45:23.933Z,-2.50
2018-12-26T22:48:04.449Z,-2.40
2018-12-26T22:50:45.177Z,-2.50
2018-12-26T22:53:25.867Z,-2.50
2018-12-26T22:56:06.366Z,-2.50
2018-12-26T22:58:47.250Z,-2.50
2018-12-26T23:01:28.416Z,-2.60
2018-12-26T23:04:09.600Z,-2.60
2018-12-26T23:06:50.576Z,-2.50
2018-12-26T23:09:32.303Z,-2.60
2018-12-26T23:12:13.639Z,-2.60
2018-12-26T23:14:54.768Z,-2.60
2018-12-26T23:17:35.758Z,-2.60
2018-12-26T23:20:16.676Z,-2.50
2018-12-26T23:22:59.068Z,-2.40
2018-12-26T23:25:40.301Z,-2.30
2018-12-26T23:28:21.210Z,-2.30
2018-12-26T23:31:01.877Z,-2.30
2018-12-26T23:33:42.953Z,-2.30
2018-12-26T23:36:23.888Z,-2.30
2018-12-26T23:39:04.898Z,-2.30
2018-12-26T23:41:45.904Z,-2.40
2018-12-26T23:44:26.998Z,-2.50
2018-12-26T23:47:07.821Z,-2.50
2018-12-26T23:49:48.682Z,-2.50
2018-12-26T23:52:29.877Z,-2.80
2018-12-26T23:55:10.816Z,-2.80
2018-12-26T23:57:51.728Z,-2.80
